Mc Intosh, South Dakota
Current Conditions -  °F | °C
As of 6:53 PM on Monday 20 Oct 2014 (Local Time) from KHEI Reporting Station
Clear Clear  
Wind Chill: 60°   Ceiling: Unl
Heat Index: 60°   Visibility: 10mi
Dew Point: 40°   Wind: 10mph
Humidity: 47%   Direction: 120°ESE
Pressure: 29.91"   Gusts: NA
Location:  45.6857°N, 101.624°W
Report Text: KHEI 210053Z AUTO 12009KT 10SM CLR 16/04 A2991 RMK AO2 SLP132 T01560044
Loading
Personal Weather Stations






























Interactive Weather Map
Tropical Storm Tracking
New forecast layout! Learn more

10-Day Weather Forecast

Advertisements
Track Severe Weather on mobile